Wednesday, September 17, 2014
17:42 UTC
  |  Log In   |  Register Free
Airport Search:

Pedro Bay Airport
(4K0)

Pedro Bay Airport Diagram
No Airport Diagram Available

FAA data valid effective July 24, 2014 until September 18, 2014 (unless otherwise noted).

 
 
 
 
 
 
 
 
 
 
 
 
 
 

Current Aviation Weather for Pedro Bay Airport (4K0)

METAR data is unavailable for 4K0. The nearest METAR location is at PAIL (23.7 nm SW from 4K0).

The most recent METAR observation for PAIL was updated at: 1729
METAR Summary (Translated METAR)
PAIL
171653Z 08015G23KT 10SM BKN055 OVC070 10/06 A2920 RMK AO2 PK WND 08029/1608 RAE03 SLP889 P0000 T01000061
(23.7 nm SW from 4K0)
PAIL
171653Z 08015G23KT 10SM BKN055 OVC070 10/06 A2920 RMK AO2 PK WND 08029/1608 RAE03 SLP889 P0000 T01000061
(23.7 nm SW from 4K0)
TAF Summary (Translated TAF)
PAIL
171120Z 1712/1812 08015G25KT P6SM -RA OVC035 FM171700 09013KT P6SM -SHRA SCT035 OVC050
PAIL
171120Z 1712/1812 08015G25KT P6SM -RA OVC035 FM171700 09013KT P6SM -SHRA SCT035 OVC050
  Airport Weather Conditions for 4K0

Current weather conditions are
not available for 4K0


The nearest NOAA weather station
is at ILI, (23.7 nm SW from 4K0)
  
 Current Weather at ILI
50° F
Overcast
East winds at 17.3 mph
ILI NOAA Radar

Pressure: 29.20 in
Humidity: 77%
Wind: from the East at 17.3 gusting to 26.5 MPH (15 gusting to 23 KT)
Dew Point: 43.0°F
Visibility: 10.00 mi


Airport Weather Forecast for 4K0

Translated METAR and TAF for PAIL
Translated METAR for PAIL (1736 UTC 17 September 2014)
found at http://aviationweather.gov/adds/metars/
 
METAR text: PAIL 171653Z 08015G23KT 10SM BKN055 OVC070 10/06 A2920 RMK AO2 PK WND 08029/1608 RAE03 SLP889 P0000 T01000061
Conditions at: PAIL (ILIAMNA , AK, US) observed 1653 UTC 17 September 2014
Temperature: 10.0°C (50°F)
Dewpoint: 6.1°C (43°F) [RH = 77%]
Pressure (altimeter): 29.20 inches Hg (988.9 mb)
[Sea-level pressure: 988.9 mb]
Winds: from the E (80 degrees) at 17 MPH (15 knots; 7.8 m/s)
gusting to 26 MPH (23 knots; 12.0 m/s)
Visibility: 10 or more miles (16+ km)
Ceiling: 5500 feet AGL
Clouds: broken clouds at 5500 feet AGL
overcast cloud deck at 7000 feet AGL
Weather: no significant weather observed at this time
Translated TAF for PAIL
Forecast for: PAIL (ILIAMNA , AK, US)
TAF Text: PAIL 171120Z 1712/1812 08015G25KT P6SM -RA OVC035
Forecast period: 1200 to 1700 UTC 17 September 2014
Forecast type: FROM: standard forecast or significant change
Winds: from the E (80 degrees) at 17 MPH (15 knots; 7.8 m/s)
gusting to 29 MPH (25 knots; 13.0 m/s)
Visibility: 6 or more miles (10+ km)
Ceiling: 3500 feet AGL
Clouds: overcast cloud deck at 3500 feet AGL
Weather: -RA  (light rain)
TAF Text: FM171700 09013KT P6SM -SHRA SCT035 OVC050
Forecast period: 1700 UTC 17 September 2014 to 1200 UTC 18 September 2014
Forecast type: FROM: standard forecast or significant change
Winds: from the E (90 degrees) at 15 MPH (13 knots; 6.8 m/s)
Visibility: 6 or more miles (10+ km)
Ceiling: 5000 feet AGL
Clouds: scattered clouds at 3500 feet AGL
overcast cloud deck at 5000 feet AGL
Weather: -SHRA  (light rain showers)

Find All Airport Services Find A Hotel Find A Rental Car Find A Golf Course Find A Restaurant $100 Hamburger



FBO's on the Field
FBO Company Facility Photos Services Transportation Aviation Fuel Prices: Prices include tax
Catering Weather Repair Courtesy Rental Type 100LL JetA JetA+ MOGAS 8087
 
Add another FBO Facility Photos Catering Weather Repair Courtesy Rental Type 100LL JetA JetA+ MOGAS 8087
Services Transportation Aviation Fuel Prices: Prices include tax
There are no FBO's currently reporting fuel at 4K0. List your FBO now


model-print
model-print
model-print
model-print